Time;durP1;ratioP1;P1;durP2;ratioP2;P2;SDS_P1;SDS_P2;PMS_P1;PMS_P2;Temp;Humidity;BMP_temperature;BMP_pressure;BME280_temperature;BME280_humidity;BME280_pressure;Samples;Min_cycle;Max_cycle;Signal;HPM_P1;HPM_P2
2023/08/20 00:00:25;;;;;;;2.92;0.63;;;17.00;99.90;;;;;;4923247;28;20054;-69
2023/08/20 00:03:04;;;;;;;0.00;0.00;;;16.90;99.90;;;;;;4907142;28;20041;-70
2023/08/20 00:05:31;;;;;;;0.20;0.10;;;16.90;99.90;;;;;;4951797;28;20417;-69
2023/08/20 00:07:57;;;;;;;0.00;0.00;;;16.80;99.90;;;;;;4936540;28;20075;-70
2023/08/20 00:10:22;;;;;;;2.05;1.75;;;16.80;99.90;;;;;;4945446;28;20517;-70
2023/08/20 00:12:48;;;;;;;0.00;0.00;;;16.70;99.90;;;;;;4963781;28;20044;-70
2023/08/20 00:15:13;;;;;;;11.70;0.47;;;16.70;99.90;;;;;;4914076;28;20052;-70
2023/08/20 00:17:41;;;;;;;0.28;0.28;;;16.70;99.90;;;;;;4964621;28;20383;-70
2023/08/20 00:20:12;;;;;;;0.22;0.22;;;16.70;99.90;;;;;;4941843;28;20456;-70
2023/08/20 00:22:39;;;;;;;0.75;0.55;;;16.70;99.90;;;;;;4920595;28;20114;-70
2023/08/20 00:25:05;;;;;;;1.98;0.85;;;16.60;99.90;;;;;;4910908;28;20522;-70
2023/08/20 00:27:32;;;;;;;0.10;0.10;;;16.70;99.90;;;;;;4950738;28;20034;-70
2023/08/20 00:29:57;;;;;;;0.00;0.00;;;16.70;99.90;;;;;;4948292;28;20048;-70
2023/08/20 00:32:23;;;;;;;0.00;0.00;;;16.70;99.90;;;;;;4916009;28;20048;-70
2023/08/20 00:34:48;;;;;;;0.05;0.05;;;16.70;99.90;;;;;;4933769;28;20450;-70
2023/08/20 00:37:14;;;;;;;0.00;0.00;;;16.60;99.90;;;;;;4958732;28;20080;-70
2023/08/20 00:39:40;;;;;;;0.10;0.10;;;16.70;99.90;;;;;;4961794;28;20130;-70
2023/08/20 00:42:07;;;;;;;0.00;0.00;;;16.60;99.90;;;;;;4906980;28;20062;-70
2023/08/20 00:44:33;;;;;;;1.25;1.00;;;16.60;99.90;;;;;;4910341;28;20084;-70
2023/08/20 00:47:00;;;;;;;0.00;0.00;;;16.60;99.90;;;;;;4964605;28;20106;-70
2023/08/20 00:49:26;;;;;;;0.22;0.22;;;16.50;99.90;;;;;;4921512;28;20076;-70
2023/08/20 00:51:53;;;;;;;0.10;0.10;;;16.50;99.90;;;;;;4920111;28;20467;-70
2023/08/20 00:54:20;;;;;;;0.00;0.00;;;16.60;99.90;;;;;;4929187;28;20111;-70
2023/08/20 00:56:47;;;;;;;0.98;0.95;;;16.50;99.90;;;;;;4937016;28;20389;-70
2023/08/20 00:59:13;;;;;;;0.03;0.03;;;16.50;99.90;;;;;;4919562;28;20138;-70
2023/08/20 01:01:39;;;;;;;0.00;0.00;;;16.50;99.90;;;;;;4940598;28;20095;-70
2023/08/20 01:04:05;;;;;;;0.00;0.00;;;16.50;99.90;;;;;;4910109;28;20044;-70
2023/08/20 01:06:59;;;;;;;0.93;0.30;;;16.40;99.90;;;;;;4909615;28;20055;-70
2023/08/20 01:09:50;;;;;;;0.20;0.20;;;16.40;99.90;;;;;;4921389;28;20480;-70
2023/08/20 01:12:17;;;;;;;0.40;0.40;;;16.40;99.90;;;;;;4922036;28;20102;-70
2023/08/20 01:14:42;;;;;;;0.80;0.80;;;16.30;99.90;;;;;;4926121;28;20038;-70
2023/08/20 01:17:08;;;;;;;0.20;0.20;;;16.30;99.90;;;;;;4908709;28;20439;-70
2023/08/20 01:19:34;;;;;;;0.20;0.20;;;16.30;99.90;;;;;;4937063;28;20067;-70
2023/08/20 01:22:08;;;;;;;0.00;0.00;;;16.30;99.90;;;;;;4906652;28;20404;-70
2023/08/20 01:24:56;;;;;;;1.55;0.65;;;16.30;99.90;;;;;;4958682;28;20128;-70
2023/08/20 01:27:45;;;;;;;0.25;0.25;;;16.30;99.90;;;;;;4967094;28;20065;-70
2023/08/20 01:30:12;;;;;;;1.45;0.35;;;16.30;99.90;;;;;;4915228;28;20423;-70
2023/08/20 01:32:42;;;;;;;0.00;0.00;;;16.30;99.90;;;;;;4910961;28;20060;-70
2023/08/20 01:35:13;;;;;;;0.00;0.00;;;16.30;99.90;;;;;;4936923;28;20482;-70
2023/08/20 01:37:39;;;;;;;0.00;0.00;;;16.30;99.90;;;;;;4928962;28;20059;-70
2023/08/20 01:40:07;;;;;;;1.15;1.00;;;16.20;99.90;;;;;;4931443;28;20057;-70
2023/08/20 01:42:33;;;;;;;0.85;0.85;;;16.30;99.90;;;;;;4942641;28;20452;-70
2023/08/20 01:44:59;;;;;;;0.32;0.32;;;16.30;99.90;;;;;;4959616;28;20059;-70
2023/08/20 01:47:25;;;;;;;0.13;0.10;;;16.30;99.90;;;;;;4950254;28;20443;-70
2023/08/20 01:49:51;;;;;;;0.00;0.00;;;16.30;99.90;;;;;;4955170;28;20057;-70
2023/08/20 01:52:16;;;;;;;0.00;0.00;;;16.40;99.90;;;;;;4907472;28;20104;-70
2023/08/20 01:54:42;;;;;;;0.80;0.80;;;16.40;99.90;;;;;;4964156;28;20046;-70
2023/08/20 01:57:07;;;;;;;0.08;0.08;;;16.30;99.90;;;;;;4921424;28;20473;-70
2023/08/20 01:59:33;;;;;;;0.10;0.10;;;16.30;99.90;;;;;;4935991;28;20052;-70
2023/08/20 02:01:59;;;;;;;0.00;0.00;;;16.30;99.90;;;;;;4941455;28;20421;-70
2023/08/20 02:04:24;;;;;;;0.05;0.05;;;16.20;99.90;;;;;;4962693;28;20070;-70
2023/08/20 02:06:50;;;;;;;0.00;0.00;;;16.20;99.90;;;;;;4967915;28;20092;-70
2023/08/20 02:09:16;;;;;;;0.00;0.00;;;16.20;99.90;;;;;;4927568;28;20528;-70
2023/08/20 02:11:42;;;;;;;0.00;0.00;;;16.20;99.90;;;;;;4904532;28;20055;-70
2023/08/20 02:14:07;;;;;;;0.00;0.00;;;16.20;99.90;;;;;;4951586;28;20052;-70
2023/08/20 02:16:33;;;;;;;0.40;0.22;;;16.30;99.90;;;;;;4965782;28;20044;-70
2023/08/20 02:18:59;;;;;;;0.13;0.13;;;16.30;99.90;;;;;;4914760;28;20469;-70
2023/08/20 02:21:24;;;;;;;0.20;0.20;;;16.30;99.90;;;;;;4956848;28;20054;-70
2023/08/20 02:23:50;;;;;;;0.08;0.08;;;16.30;99.90;;;;;;4931668;28;20045;-70
2023/08/20 02:26:16;;;;;;;0.10;0.10;;;16.30;99.90;;;;;;4924028;28;20456;-70
2023/08/20 02:28:41;;;;;;;0.22;0.22;;;16.30;99.90;;;;;;4955595;28;20096;-70
2023/08/20 02:31:07;;;;;;;14.93;2.28;;;16.30;99.90;;;;;;4942698;28;20045;-70
2023/08/20 02:33:32;;;;;;;0.05;0.05;;;16.20;99.90;;;;;;4906386;28;20056;-69
2023/08/20 02:36:02;;;;;;;0.00;0.00;;;16.20;99.90;;;;;;4939715;28;20118;-70
2023/08/20 02:38:28;;;;;;;0.90;0.65;;;16.20;99.90;;;;;;4971035;28;20046;-70
2023/08/20 02:40:54;;;;;;;0.00;0.00;;;16.20;99.90;;;;;;4927381;28;20048;-69
2023/08/20 02:43:20;;;;;;;0.00;0.00;;;16.20;99.90;;;;;;4936360;28;20153;-69
2023/08/20 02:45:45;;;;;;;0.35;0.35;;;16.20;99.90;;;;;;4920336;28;20041;-70
2023/08/20 02:48:12;;;;;;;0.77;0.47;;;16.20;99.90;;;;;;4932794;28;20177;-70
2023/08/20 02:50:38;;;;;;;0.10;0.10;;;16.10;99.90;;;;;;4963678;28;20124;-70
2023/08/20 02:53:03;;;;;;;0.00;0.00;;;16.10;99.90;;;;;;4913716;28;20674;-70
2023/08/20 02:55:30;;;;;;;0.10;0.10;;;16.10;99.90;;;;;;4973069;28;20040;-69
2023/08/20 02:57:56;;;;;;;0.00;0.00;;;16.20;99.90;;;;;;4944907;28;20528;-70
2023/08/20 03:00:21;;;;;;;0.43;0.43;;;16.10;99.90;;;;;;4936224;28;20059;-69
2023/08/20 03:02:47;;;;;;;0.20;0.15;;;16.10;99.90;;;;;;4923063;28;20044;-69
2023/08/20 03:05:14;;;;;;;0.00;0.00;;;16.10;99.90;;;;;;4974939;28;20046;-70
2023/08/20 03:07:39;;;;;;;0.08;0.08;;;16.10;99.90;;;;;;4938891;28;20071;-70
2023/08/20 03:10:06;;;;;;;0.00;0.00;;;16.00;99.90;;;;;;4933862;28;20131;-70
2023/08/20 03:12:31;;;;;;;0.00;0.00;;;16.10;99.90;;;;;;4905379;28;20051;-70
2023/08/20 03:14:57;;;;;;;0.00;0.00;;;16.10;99.90;;;;;;4912266;28;20052;-69
2023/08/20 03:17:23;;;;;;;0.10;0.10;;;16.10;99.90;;;;;;4915705;28;20156;-69
2023/08/20 03:19:59;;;;;;;0.00;0.00;;;16.10;99.90;;;;;;4975168;28;20692;-70
2023/08/20 03:22:26;;;;;;;0.10;0.03;;;16.10;99.90;;;;;;4951419;28;20139;-70
2023/08/20 03:24:53;;;;;;;0.00;0.00;;;16.10;99.90;;;;;;4903139;28;20045;-70
2023/08/20 03:27:19;;;;;;;0.00;0.00;;;16.20;99.90;;;;;;4973318;28;20550;-70
2023/08/20 03:29:45;;;;;;;0.00;0.00;;;16.20;99.90;;;;;;4956084;28;20049;-70
2023/08/20 03:32:11;;;;;;;0.05;0.05;;;16.20;99.90;;;;;;4906951;28;20415;-69
2023/08/20 03:34:37;;;;;;;0.00;0.00;;;16.20;99.90;;;;;;4917740;28;20049;-70
2023/08/20 03:37:03;;;;;;;1.35;0.70;;;16.20;99.90;;;;;;4953852;28;20048;-69
2023/08/20 03:39:30;;;;;;;0.10;0.10;;;16.10;99.90;;;;;;4930248;28;20065;-69
2023/08/20 03:41:57;;;;;;;0.30;0.30;;;16.10;99.90;;;;;;4900751;28;20066;-70
2023/08/20 03:44:22;;;;;;;0.20;0.20;;;16.10;99.90;;;;;;4911345;28;20044;-69
2023/08/20 03:46:48;;;;;;;0.00;0.00;;;16.10;99.90;;;;;;4920353;28;20051;-70
2023/08/20 03:49:14;;;;;;;0.00;0.00;;;16.20;99.90;;;;;;4909004;28;20051;-70
2023/08/20 03:51:40;;;;;;;0.00;0.00;;;16.10;99.90;;;;;;4938669;28;20490;-70
2023/08/20 03:54:06;;;;;;;0.28;0.28;;;16.10;99.90;;;;;;4925338;28;20090;-70
2023/08/20 03:56:32;;;;;;;0.32;0.32;;;16.00;99.90;;;;;;4947684;28;20841;-70
2023/08/20 03:58:57;;;;;;;0.10;0.10;;;16.00;99.90;;;;;;4907970;28;20048;-70
2023/08/20 04:01:23;;;;;;;0.08;0.08;;;16.10;99.90;;;;;;4947434;28;20053;-69
2023/08/20 04:03:49;;;;;;;0.10;0.10;;;16.00;99.90;;;;;;4939756;28;20048;-70
2023/08/20 04:06:14;;;;;;;0.00;0.00;;;16.00;99.90;;;;;;4919030;28;20103;-69
2023/08/20 04:08:40;;;;;;;0.00;0.00;;;16.00;99.90;;;;;;4971138;28;20040;-69
2023/08/20 04:11:07;;;;;;;0.90;0.90;;;16.00;99.90;;;;;;4941002;28;20056;-70
2023/08/20 04:13:32;;;;;;;0.20;0.20;;;15.90;99.90;;;;;;4953883;28;20280;-70
2023/08/20 04:15:58;;;;;;;0.00;0.00;;;15.80;99.90;;;;;;4909733;28;20475;-69
2023/08/20 04:18:24;;;;;;;0.03;0.03;;;15.80;99.90;;;;;;4961630;28;20092;-70
2023/08/20 04:20:51;;;;;;;0.32;0.32;;;15.70;99.90;;;;;;4933377;28;20049;-69
2023/08/20 04:23:17;;;;;;;0.20;0.20;;;15.80;99.90;;;;;;4927069;28;20045;-70
2023/08/20 04:25:44;;;;;;;0.13;0.13;;;15.80;99.90;;;;;;4919639;28;20061;-70
2023/08/20 04:28:09;;;;;;;0.08;0.08;;;15.80;99.90;;;;;;4945193;28;20116;-69
2023/08/20 04:30:36;;;;;;;0.47;0.47;;;15.90;99.90;;;;;;4950275;28;20131;-69
2023/08/20 04:33:02;;;;;;;0.03;0.03;;;16.00;99.90;;;;;;4944385;28;20061;-70
2023/08/20 04:35:27;;;;;;;0.15;0.15;;;15.90;99.90;;;;;;4944814;28;20058;-69
2023/08/20 04:37:53;;;;;;;0.00;0.00;;;16.00;99.90;;;;;;4947144;28;20040;-69
2023/08/20 04:40:18;;;;;;;1.08;0.30;;;16.00;99.90;;;;;;4930387;28;20053;-70
2023/08/20 04:42:44;;;;;;;0.10;0.10;;;16.00;99.90;;;;;;4944751;28;20139;-70
2023/08/20 04:45:13;;;;;;;0.00;0.00;;;16.10;99.90;;;;;;4967700;28;20460;-69
2023/08/20 04:47:38;;;;;;;0.22;0.22;;;16.10;99.90;;;;;;4937661;28;20123;-70
2023/08/20 04:50:07;;;;;;;0.13;0.13;;;16.10;99.90;;;;;;4921429;28;20128;-70
2023/08/20 04:52:33;;;;;;;0.55;0.55;;;16.10;99.90;;;;;;4946698;28;20139;-70
2023/08/20 04:55:00;;;;;;;0.00;0.00;;;16.10;99.90;;;;;;4978056;28;20044;-70
2023/08/20 04:57:25;;;;;;;2.53;1.35;;;16.20;99.90;;;;;;4904674;28;20051;-70
2023/08/20 04:59:51;;;;;;;0.00;0.00;;;16.20;99.90;;;;;;4948203;28;20397;-70
2023/08/20 05:02:16;;;;;;;0.45;0.43;;;16.10;99.90;;;;;;4943703;28;20126;-69
2023/08/20 05:04:42;;;;;;;0.00;0.00;;;16.10;99.90;;;;;;4901964;28;20393;-69
2023/08/20 05:07:09;;;;;;;0.00;0.00;;;16.10;99.90;;;;;;4947850;28;20456;-70
2023/08/20 05:09:34;;;;;;;0.00;0.00;;;16.20;99.90;;;;;;4919123;28;20553;-70
2023/08/20 05:12:00;;;;;;;0.00;0.00;;;16.20;99.90;;;;;;4976917;28;20125;-69
2023/08/20 05:14:25;;;;;;;0.10;0.10;;;16.30;99.90;;;;;;4919176;28;20051;-70
2023/08/20 05:16:51;;;;;;;0.00;0.00;;;16.30;99.90;;;;;;4918748;28;20378;-70
2023/08/20 05:19:16;;;;;;;0.00;0.00;;;16.40;99.90;;;;;;4952442;28;20140;-70
2023/08/20 05:21:42;;;;;;;0.00;0.00;;;16.40;99.90;;;;;;4934069;28;20427;-69
2023/08/20 05:24:08;;;;;;;0.00;0.00;;;16.50;99.90;;;;;;4946315;28;20050;-70
2023/08/20 05:26:34;;;;;;;0.28;0.28;;;16.50;99.90;;;;;;4937182;28;20044;-69
2023/08/20 05:29:00;;;;;;;0.00;0.00;;;16.60;99.90;;;;;;4937140;28;20506;-69
2023/08/20 05:31:26;;;;;;;0.00;0.00;;;16.60;99.90;;;;;;4936830;28;20113;-70
2023/08/20 05:33:51;;;;;;;1.55;0.55;;;16.60;99.90;;;;;;4933147;28;20052;-70
2023/08/20 05:36:17;;;;;;;0.03;0.03;;;16.70;99.90;;;;;;4935784;28;20068;-69
2023/08/20 05:38:43;;;;;;;0.25;0.13;;;16.80;99.90;;;;;;4922909;28;20040;-70
2023/08/20 05:41:08;;;;;;;0.05;0.05;;;16.80;99.90;;;;;;4921018;28;20040;-69
2023/08/20 05:43:36;;;;;;;1.10;0.75;;;16.80;99.90;;;;;;4969877;28;20050;-69
2023/08/20 05:46:02;;;;;;;0.00;0.00;;;16.80;99.90;;;;;;4917717;28;20036;-69
2023/08/20 05:48:28;;;;;;;0.03;0.03;;;16.90;99.90;;;;;;4936382;28;20145;-70
2023/08/20 05:50:54;;;;;;;0.98;0.98;;;16.90;99.90;;;;;;4936827;28;20044;-69
2023/08/20 05:53:20;;;;;;;0.15;0.15;;;17.00;99.90;;;;;;4925877;28;20051;-70
2023/08/20 05:55:46;;;;;;;0.05;0.05;;;17.00;99.90;;;;;;4949547;28;20052;-70
2023/08/20 05:58:11;;;;;;;0.10;0.10;;;17.00;99.90;;;;;;4955758;28;20480;-70
2023/08/20 06:00:37;;;;;;;0.20;0.20;;;17.10;99.90;;;;;;4917072;28;20048;-70
2023/08/20 06:03:03;;;;;;;0.20;0.20;;;17.10;99.90;;;;;;4901590;28;20055;-70
2023/08/20 06:05:28;;;;;;;0.85;0.73;;;17.10;99.90;;;;;;4957708;28;20040;-70
2023/08/20 06:07:54;;;;;;;0.88;0.73;;;17.20;99.90;;;;;;4947793;28;20386;-70
2023/08/20 06:10:19;;;;;;;0.05;0.05;;;17.30;99.90;;;;;;4916233;28;20048;-70
2023/08/20 06:12:45;;;;;;;0.10;0.10;;;17.30;99.90;;;;;;4911505;28;20392;-70
2023/08/20 06:15:11;;;;;;;0.00;0.00;;;17.30;99.90;;;;;;4922695;28;20036;-70
2023/08/20 06:17:36;;;;;;;0.00;0.00;;;17.30;99.90;;;;;;4963553;28;20056;-70
2023/08/20 06:20:07;;;;;;;3.75;0.88;;;17.40;99.90;;;;;;4921143;28;20040;-70
2023/08/20 06:22:32;;;;;;;0.10;0.10;;;17.40;99.90;;;;;;4924148;28;20074;-70
2023/08/20 06:24:58;;;;;;;0.05;0.05;;;17.50;99.90;;;;;;4958554;28;20036;-70
2023/08/20 06:27:23;;;;;;;0.00;0.00;;;17.60;99.90;;;;;;4952568;28;20049;-70
2023/08/20 06:29:49;;;;;;;3.40;1.08;;;17.60;99.90;;;;;;4935707;28;20066;-70
2023/08/20 06:32:15;;;;;;;0.00;0.00;;;17.60;99.90;;;;;;4949648;28;20057;-70
2023/08/20 06:34:40;;;;;;;0.00;0.00;;;17.70;99.90;;;;;;4918660;28;20060;-70
2023/08/20 06:37:06;;;;;;;0.05;0.05;;;17.80;99.90;;;;;;4916234;28;20520;-70
2023/08/20 06:39:31;;;;;;;0.00;0.00;;;17.80;99.90;;;;;;4908746;28;20090;-70
2023/08/20 06:41:57;;;;;;;0.03;0.03;;;17.90;99.90;;;;;;4924052;28;20434;-70
2023/08/20 06:44:23;;;;;;;2.90;1.25;;;18.00;99.90;;;;;;4930750;28;20052;-70
2023/08/20 06:46:48;;;;;;;0.57;0.32;;;18.10;99.90;;;;;;4917203;28;20059;-70
2023/08/20 06:49:14;;;;;;;0.63;0.47;;;18.10;99.90;;;;;;4921563;28;20045;-71
2023/08/20 06:51:39;;;;;;;32.08;1.85;;;18.20;99.90;;;;;;4956963;28;20042;-70
2023/08/20 06:54:08;;;;;;;0.00;0.00;;;18.30;99.90;;;;;;4932428;28;20052;-71
2023/08/20 06:56:34;;;;;;;0.00;0.00;;;18.30;99.90;;;;;;4951134;28;20132;-71
2023/08/20 06:59:00;;;;;;;1.45;0.75;;;18.40;99.90;;;;;;4908688;28;20119;-70
2023/08/20 07:01:26;;;;;;;0.15;0.15;;;18.50;99.90;;;;;;4936955;28;20045;-71
2023/08/20 07:03:51;;;;;;;1.02;0.98;;;18.50;99.90;;;;;;4921038;28;20444;-70
2023/08/20 07:06:18;;;;;;;12.57;1.45;;;18.50;99.90;;;;;;4916108;28;20110;-71
2023/08/20 07:08:44;;;;;;;0.10;0.10;;;18.60;99.90;;;;;;4919385;28;20041;-70
2023/08/20 07:11:10;;;;;;;0.45;0.45;;;18.70;99.90;;;;;;4949231;28;20045;-70
2023/08/20 07:13:35;;;;;;;0.10;0.10;;;18.70;99.90;;;;;;4953523;28;20028;-70
2023/08/20 07:16:02;;;;;;;0.00;0.00;;;18.80;99.90;;;;;;4943073;28;20047;-70
2023/08/20 07:18:28;;;;;;;0.00;0.00;;;18.80;99.90;;;;;;4925115;28;20045;-70
2023/08/20 07:20:55;;;;;;;0.00;0.00;;;18.90;99.90;;;;;;4936552;28;20045;-69
2023/08/20 07:23:20;;;;;;;0.22;0.22;;;18.90;99.90;;;;;;4952518;28;21188;-70
2023/08/20 07:25:46;;;;;;;0.00;0.00;;;19.00;99.90;;;;;;4965775;28;20046;-70
2023/08/20 07:28:13;;;;;;;0.10;0.10;;;19.00;99.90;;;;;;4921382;28;20072;-70
2023/08/20 07:30:38;;;;;;;0.00;0.00;;;19.10;99.90;;;;;;4922866;28;20052;-70
2023/08/20 07:33:07;;;;;;;0.98;0.80;;;19.20;99.90;;;;;;4922583;28;20043;-70
2023/08/20 07:35:33;;;;;;;0.00;0.00;;;19.20;99.90;;;;;;4944792;28;20132;-70
2023/08/20 07:37:58;;;;;;;0.75;0.40;;;19.30;99.90;;;;;;4949676;28;20050;-70
2023/08/20 07:40:24;;;;;;;0.00;0.00;;;19.30;99.90;;;;;;4931498;28;20060;-69
2023/08/20 07:42:50;;;;;;;0.00;0.00;;;19.40;99.90;;;;;;4940132;28;20044;-69
2023/08/20 07:45:16;;;;;;;10.63;0.28;;;19.40;99.90;;;;;;4925019;28;20071;-69
2023/08/20 07:47:42;;;;;;;0.10;0.10;;;19.50;99.90;;;;;;4926494;28;20127;-69
2023/08/20 07:50:08;;;;;;;0.00;0.00;;;19.50;99.90;;;;;;4935280;28;20044;-69
2023/08/20 07:52:33;;;;;;;0.65;0.40;;;19.40;99.90;;;;;;4941331;28;20044;-69
2023/08/20 07:54:59;;;;;;;0.00;0.00;;;19.50;99.90;;;;;;4934078;28;20563;-69
2023/08/20 07:57:25;;;;;;;0.20;0.20;;;19.40;99.90;;;;;;4925551;28;20058;-70
2023/08/20 07:59:51;;;;;;;2.20;1.58;;;19.50;99.90;;;;;;4906733;28;20037;-67
2023/08/20 08:02:16;;;;;;;4.03;0.90;;;19.60;99.90;;;;;;4918225;28;20048;-68
2023/08/20 08:04:42;;;;;;;2.03;0.90;;;19.70;99.90;;;;;;4950909;28;20199;-70
2023/08/20 08:07:09;;;;;;;0.22;0.22;;;19.70;99.90;;;;;;4929676;28;20432;-70
2023/08/20 08:09:35;;;;;;;0.10;0.10;;;19.80;99.90;;;;;;4918016;28;20210;-69
2023/08/20 08:12:01;;;;;;;2.28;0.43;;;19.80;99.90;;;;;;4938137;28;20131;-70
2023/08/20 08:14:27;;;;;;;1.90;0.85;;;19.80;99.90;;;;;;4920868;28;20410;-69
2023/08/20 08:16:53;;;;;;;8.25;1.08;;;19.80;99.90;;;;;;4955728;28;20048;-70
2023/08/20 08:19:19;;;;;;;0.00;0.00;;;19.80;99.90;;;;;;4953143;28;20048;-70
2023/08/20 08:21:45;;;;;;;0.00;0.00;;;19.90;99.90;;;;;;4947431;28;20060;-69
2023/08/20 08:24:12;;;;;;;0.20;0.20;;;19.90;99.90;;;;;;4911120;28;20053;-69
2023/08/20 08:26:38;;;;;;;0.05;0.05;;;20.00;99.90;;;;;;4942607;28;20055;-69
2023/08/20 08:29:05;;;;;;;0.10;0.10;;;20.00;99.90;;;;;;4921077;28;20041;-69
2023/08/20 08:31:31;;;;;;;0.13;0.13;;;20.00;99.90;;;;;;4920412;28;20044;-69
2023/08/20 08:33:57;;;;;;;0.60;0.57;;;20.00;99.90;;;;;;4922824;28;20049;-69
2023/08/20 08:36:24;;;;;;;0.20;0.20;;;20.10;99.90;;;;;;4915723;28;20511;-70
2023/08/20 08:38:50;;;;;;;0.10;0.10;;;20.20;99.90;;;;;;4922640;28;20049;-69
2023/08/20 08:41:16;;;;;;;0.00;0.00;;;20.20;99.90;;;;;;4963784;28;20044;-70
2023/08/20 08:43:42;;;;;;;4.03;1.00;;;20.30;99.90;;;;;;4949428;28;20067;-70
2023/08/20 08:46:14;;;;;;;0.52;0.52;;;20.30;99.90;;;;;;4960231;28;20052;-70
2023/08/20 08:48:42;;;;;;;0.10;0.10;;;20.40;99.90;;;;;;4937335;28;20040;-70
2023/08/20 08:51:08;;;;;;;0.00;0.00;;;20.50;99.90;;;;;;4919953;28;20114;-70
2023/08/20 08:53:34;;;;;;;0.38;0.38;;;20.50;99.90;;;;;;4962520;28;20042;-70
2023/08/20 08:56:02;;;;;;;0.00;0.00;;;20.50;99.90;;;;;;4932503;28;20040;-70
2023/08/20 08:58:28;;;;;;;0.28;0.28;;;20.60;99.90;;;;;;4948890;28;20644;-69
2023/08/20 09:00:54;;;;;;;4.03;0.80;;;20.70;99.90;;;;;;4903306;28;20037;-69
2023/08/20 09:03:20;;;;;;;0.55;0.30;;;20.70;99.90;;;;;;4962911;28;20388;-69
2023/08/20 09:05:57;;;;;;;0.10;0.10;;;20.80;99.90;;;;;;4937712;28;20043;-70
2023/08/20 09:08:26;;;;;;;0.10;0.10;;;20.80;99.90;;;;;;4973050;28;20131;-70
2023/08/20 09:11:01;;;;;;;1.17;0.43;;;20.80;99.90;;;;;;4925396;28;20488;-70
2023/08/20 09:13:38;;;;;;;3.05;0.20;;;21.00;99.90;;;;;;4969255;28;20476;-70
2023/08/20 09:16:09;;;;;;;0.00;0.00;;;21.30;99.90;;;;;;4906808;28;20059;-69
2023/08/20 09:18:43;;;;;;;0.00;0.00;;;21.80;99.90;;;;;;4936481;28;20040;-69
2023/08/20 09:21:10;;;;;;;0.00;0.00;;;22.30;99.90;;;;;;4921786;28;20048;-70
2023/08/20 09:23:37;;;;;;;0.00;0.00;;;23.00;99.90;;;;;;4945783;28;20044;-69
2023/08/20 09:26:03;;;;;;;0.00;0.00;;;23.60;99.90;;;;;;4970467;28;20045;-69
2023/08/20 09:28:40;;;;;;;0.10;0.10;;;24.20;99.90;;;;;;4929918;28;20403;-70
2023/08/20 09:31:05;;;;;;;0.00;0.00;;;24.70;99.90;;;;;;4929752;28;20041;-69
2023/08/20 09:33:31;;;;;;;0.10;0.10;;;24.10;99.90;;;;;;4952767;28;20459;-69
2023/08/20 09:35:57;;;;;;;0.00;0.00;;;24.20;99.90;;;;;;4957938;28;20084;-69
2023/08/20 09:38:25;;;;;;;0.10;0.10;;;24.60;99.90;;;;;;4911144;28;20480;-69
2023/08/20 09:40:56;;;;;;;0.10;0.10;;;24.60;99.90;;;;;;4961266;28;20052;-71
2023/08/20 09:43:28;;;;;;;0.10;0.10;;;24.70;99.90;;;;;;4970725;28;20050;-70
2023/08/20 09:45:56;;;;;;;0.00;0.00;;;24.60;99.90;;;;;;4935657;28;20119;-69
2023/08/20 09:48:24;;;;;;;0.00;0.00;;;24.30;99.90;;;;;;4923110;28;20403;-68
2023/08/20 09:50:54;;;;;;;0.10;0.10;;;23.80;99.90;;;;;;4905781;28;20115;-68
2023/08/20 09:53:30;;;;;;;0.00;0.00;;;23.40;99.90;;;;;;4906521;28;20131;-68
2023/08/20 09:56:03;;;;;;;1.48;0.90;;;23.50;99.90;;;;;;4954040;28;20132;-69
2023/08/20 09:58:30;;;;;;;0.28;0.15;;;23.80;99.90;;;;;;4938273;28;20070;-68
2023/08/20 10:00:56;;;;;;;0.00;0.00;;;24.30;99.90;;;;;;4963715;28;20048;-69
2023/08/20 10:03:22;;;;;;;0.00;0.00;;;24.90;99.90;;;;;;4947053;28;20088;-69
2023/08/20 10:05:51;;;;;;;2.28;2.05;;;25.30;99.90;;;;;;4911135;28;20427;-70
2023/08/20 10:08:17;;;;;;;0.00;0.00;;;25.50;99.90;;;;;;4935643;28;20048;-69
2023/08/20 10:10:43;;;;;;;0.73;0.73;;;25.00;99.90;;;;;;4926126;28;20140;-69
2023/08/20 10:13:09;;;;;;;9.23;0.90;;;24.90;99.90;;;;;;4903067;28;20373;-69
2023/08/20 10:15:36;;;;;;;0.45;0.45;;;24.70;99.90;;;;;;4959136;28;20041;-69
2023/08/20 10:18:02;;;;;;;0.32;0.30;;;24.70;99.90;;;;;;4969356;28;20050;-70
2023/08/20 10:20:31;;;;;;;0.00;0.00;;;25.10;99.90;;;;;;4958674;28;20078;-70
2023/08/20 10:23:02;;;;;;;1.52;0.63;;;25.20;99.90;;;;;;4934403;28;20153;-69
2023/08/20 10:25:29;;;;;;;0.20;0.10;;;25.30;99.90;;;;;;4960021;28;20689;-69
2023/08/20 10:28:18;;;;;;;0.25;0.25;;;25.50;99.90;;;;;;4960088;28;20057;-69
2023/08/20 10:31:03;;;;;;;0.00;0.00;;;25.30;99.90;;;;;;4957895;28;20040;-69
2023/08/20 10:33:28;;;;;;;0.10;0.10;;;25.40;99.90;;;;;;4935526;28;20056;-70
2023/08/20 10:35:54;;;;;;;0.25;0.25;;;25.10;99.90;;;;;;4962723;28;20038;-70
2023/08/20 10:38:19;;;;;;;0.00;0.00;;;25.10;99.90;;;;;;4950177;28;20104;-69
2023/08/20 10:40:58;;;;;;;0.00;0.00;;;25.10;99.90;;;;;;4942760;28;20142;-70
2023/08/20 10:43:27;;;;;;;0.25;0.25;;;25.00;99.90;;;;;;4944993;28;20050;-70
2023/08/20 10:46:11;;;;;;;0.03;0.03;;;24.90;99.90;;;;;;4933331;28;20041;-71
2023/08/20 10:48:39;;;;;;;0.00;0.00;;;25.00;99.90;;;;;;4943899;28;20543;-70
2023/08/20 10:51:13;;;;;;;0.10;0.10;;;25.10;99.90;;;;;;4946543;28;20037;-70
2023/08/20 10:53:40;;;;;;;0.00;0.00;;;24.90;99.90;;;;;;4951294;28;20434;-70
2023/08/20 10:56:14;;;;;;;0.57;0.40;;;25.00;99.90;;;;;;4921969;28;20050;-69
2023/08/20 10:58:45;;;;;;;0.47;0.47;;;24.60;99.90;;;;;;4938914;28;20052;-69
2023/08/20 11:01:15;;;;;;;0.05;0.05;;;24.60;99.90;;;;;;4929493;28;20056;-70
2023/08/20 11:03:43;;;;;;;0.20;0.17;;;24.70;99.90;;;;;;4932704;28;20047;-69
2023/08/20 11:06:09;;;;;;;0.47;0.47;;;24.30;99.90;;;;;;4911189;28;20128;-70
2023/08/20 11:08:35;;;;;;;0.00;0.00;;;24.00;99.90;;;;;;4934551;28;20034;-70
2023/08/20 11:11:03;;;;;;;2.92;0.57;;;24.30;99.90;;;;;;4924230;28;20544;-70
2023/08/20 11:13:31;;;;;;;0.00;0.00;;;24.30;99.90;;;;;;4972764;28;20482;-70
2023/08/20 11:15:57;;;;;;;0.00;0.00;;;24.10;99.90;;;;;;4968833;28;20041;-70
2023/08/20 11:18:25;;;;;;;0.80;0.80;;;24.20;99.90;;;;;;4967191;28;20359;-70
2023/08/20 11:20:50;;;;;;;0.03;0.03;;;24.20;99.90;;;;;;4918733;28;20056;-70
2023/08/20 11:23:16;;;;;;;0.63;0.63;;;24.50;99.90;;;;;;4910104;28;20913;-69
2023/08/20 11:25:43;;;;;;;1.45;0.28;;;24.60;99.90;;;;;;4918685;28;20116;-69
2023/08/20 11:28:09;;;;;;;0.30;0.30;;;24.30;99.90;;;;;;4917252;28;20053;-69
2023/08/20 11:30:35;;;;;;;0.57;0.47;;;24.10;99.90;;;;;;4919599;28;20514;-69
2023/08/20 11:33:01;;;;;;;0.70;0.45;;;24.10;99.90;;;;;;4928480;28;20052;-68
2023/08/20 11:35:27;;;;;;;0.00;0.00;;;24.60;99.90;;;;;;4921063;28;20052;-69
2023/08/20 11:37:53;;;;;;;0.35;0.35;;;25.00;99.90;;;;;;4909888;28;20048;-70
2023/08/20 11:40:22;;;;;;;0.00;0.00;;;25.30;99.90;;;;;;4940288;28;20512;-70
2023/08/20 11:42:48;;;;;;;0.03;0.03;;;25.20;99.90;;;;;;4949105;28;20450;-70
2023/08/20 11:45:15;;;;;;;0.30;0.30;;;25.00;99.90;;;;;;4967354;28;20042;-70
2023/08/20 11:47:41;;;;;;;0.10;0.10;;;25.10;99.90;;;;;;4927799;28;20067;-70
2023/08/20 11:50:08;;;;;;;0.00;0.00;;;25.10;99.90;;;;;;4924681;28;20046;-70
2023/08/20 11:52:35;;;;;;;2.35;1.20;;;25.10;99.90;;;;;;4961243;28;20102;-70
2023/08/20 11:55:02;;;;;;;0.00;0.00;;;25.40;99.90;;;;;;4913124;28;20052;-70
2023/08/20 11:57:31;;;;;;;0.03;0.00;;;25.60;99.90;;;;;;4915535;28;20483;-70
2023/08/20 12:00:10;;;;;;;0.00;0.00;;;25.90;99.90;;;;;;4920655;28;20044;-70
2023/08/20 12:02:36;;;;;;;0.43;0.28;;;25.90;99.90;;;;;;4929462;28;20067;-70
2023/08/20 12:05:02;;;;;;;0.08;0.08;;;26.30;99.90;;;;;;4965813;28;20041;-70
2023/08/20 12:07:29;;;;;;;0.00;0.00;;;26.40;99.90;;;;;;4960436;28;20046;-70
2023/08/20 12:09:55;;;;;;;0.00;0.00;;;26.00;99.90;;;;;;4950687;28;20070;-70
2023/08/20 12:12:22;;;;;;;0.00;0.00;;;26.20;99.90;;;;;;4910199;28;20127;-70
2023/08/20 12:14:48;;;;;;;0.32;0.32;;;26.30;99.90;;;;;;4925865;28;20549;-70
2023/08/20 12:17:18;;;;;;;0.00;0.00;;;26.60;99.90;;;;;;4924654;28;20044;-70
2023/08/20 12:19:44;;;;;;;0.00;0.00;;;26.70;99.90;;;;;;4958504;28;20056;-71
2023/08/20 12:22:10;;;;;;;0.00;0.00;;;26.50;99.90;;;;;;4909805;28;20063;-70
2023/08/20 12:24:36;;;;;;;0.00;0.00;;;26.90;99.90;;;;;;4951184;28;20053;-71
2023/08/20 12:27:02;;;;;;;0.10;0.10;;;27.00;99.90;;;;;;4910469;28;20047;-70
2023/08/20 12:29:28;;;;;;;0.08;0.08;;;27.00;99.90;;;;;;4908105;28;20393;-71
2023/08/20 12:31:53;;;;;;;0.00;0.00;;;26.50;99.90;;;;;;4928667;28;20041;-70
2023/08/20 12:34:21;;;;;;;0.05;0.05;;;26.50;99.90;;;;;;4920598;28;20556;-70
2023/08/20 12:36:47;;;;;;;0.03;0.03;;;26.30;99.90;;;;;;4926317;28;20165;-70
2023/08/20 12:39:13;;;;;;;0.85;0.65;;;26.60;99.90;;;;;;4913017;28;20131;-71
2023/08/20 12:41:39;;;;;;;0.00;0.00;;;26.80;99.90;;;;;;4919889;28;20489;-71
2023/08/20 12:44:05;;;;;;;0.03;0.03;;;27.20;99.90;;;;;;4978164;28;20102;-70